sensor_id;sensor_type;location;lat;lon;timestamp;P1;durP1;ratioP1;P2;durP2;ratioP2
11651;SDS011;5882;48.818;9.114;2022-11-12T00:02:05;6.32;;;5.18;;
11651;SDS011;5882;48.818;9.114;2022-11-12T00:04:31;6.97;;;5.05;;
11651;SDS011;5882;48.818;9.114;2022-11-12T00:06:59;5.43;;;4.65;;
11651;SDS011;5882;48.818;9.114;2022-11-12T00:09:25;5.30;;;4.45;;
11651;SDS011;5882;48.818;9.114;2022-11-12T00:11:52;5.43;;;4.65;;
11651;SDS011;5882;48.818;9.114;2022-11-12T00:14:18;5.00;;;4.57;;
11651;SDS011;5882;48.818;9.114;2022-11-12T00:16:45;6.03;;;5.00;;
11651;SDS011;5882;48.818;9.114;2022-11-12T00:19:11;6.82;;;4.65;;
11651;SDS011;5882;48.818;9.114;2022-11-12T00:21:38;4.93;;;4.43;;
11651;SDS011;5882;48.818;9.114;2022-11-12T00:24:06;6.10;;;4.45;;
11651;SDS011;5882;48.818;9.114;2022-11-12T00:26:33;5.35;;;4.85;;
11651;SDS011;5882;48.818;9.114;2022-11-12T00:28:59;5.55;;;4.32;;
11651;SDS011;5882;48.818;9.114;2022-11-12T00:31:26;5.68;;;4.50;;
11651;SDS011;5882;48.818;9.114;2022-11-12T00:33:52;7.05;;;5.00;;
11651;SDS011;5882;48.818;9.114;2022-11-12T00:36:19;5.63;;;4.78;;
11651;SDS011;5882;48.818;9.114;2022-11-12T00:38:45;6.68;;;5.55;;
11651;SDS011;5882;48.818;9.114;2022-11-12T00:41:13;5.30;;;4.63;;
11651;SDS011;5882;48.818;9.114;2022-11-12T00:43:40;5.35;;;4.38;;
11651;SDS011;5882;48.818;9.114;2022-11-12T00:46:06;6.20;;;4.60;;
11651;SDS011;5882;48.818;9.114;2022-11-12T00:48:33;4.60;;;4.18;;
11651;SDS011;5882;48.818;9.114;2022-11-12T00:51:00;4.70;;;4.22;;
11651;SDS011;5882;48.818;9.114;2022-11-12T00:53:27;5.57;;;4.18;;
11651;SDS011;5882;48.818;9.114;2022-11-12T00:55:58;5.05;;;4.55;;
11651;SDS011;5882;48.818;9.114;2022-11-12T00:58:28;5.32;;;4.68;;
11651;SDS011;5882;48.818;9.114;2022-11-12T01:00:54;5.38;;;4.75;;
11651;SDS011;5882;48.818;9.114;2022-11-12T01:03:21;6.57;;;4.90;;
11651;SDS011;5882;48.818;9.114;2022-11-12T01:05:47;6.50;;;4.70;;
11651;SDS011;5882;48.818;9.114;2022-11-12T01:08:14;7.53;;;4.53;;
11651;SDS011;5882;48.818;9.114;2022-11-12T01:10:41;5.72;;;5.10;;
11651;SDS011;5882;48.818;9.114;2022-11-12T01:13:08;7.80;;;4.95;;
11651;SDS011;5882;48.818;9.114;2022-11-12T01:15:40;6.18;;;4.95;;
11651;SDS011;5882;48.818;9.114;2022-11-12T01:18:07;5.80;;;5.20;;
11651;SDS011;5882;48.818;9.114;2022-11-12T01:20:35;4.78;;;4.28;;
11651;SDS011;5882;48.818;9.114;2022-11-12T01:23:02;6.22;;;4.32;;
11651;SDS011;5882;48.818;9.114;2022-11-12T01:25:28;6.82;;;4.47;;
11651;SDS011;5882;48.818;9.114;2022-11-12T01:27:55;8.98;;;5.18;;
11651;SDS011;5882;48.818;9.114;2022-11-12T01:30:21;8.77;;;5.22;;
11651;SDS011;5882;48.818;9.114;2022-11-12T01:32:49;17.33;;;7.15;;
11651;SDS011;5882;48.818;9.114;2022-11-12T01:35:16;17.45;;;7.57;;
11651;SDS011;5882;48.818;9.114;2022-11-12T01:37:42;12.02;;;6.82;;
11651;SDS011;5882;48.818;9.114;2022-11-12T01:40:09;13.32;;;7.93;;
11651;SDS011;5882;48.818;9.114;2022-11-12T01:42:36;12.40;;;6.15;;
11651;SDS011;5882;48.818;9.114;2022-11-12T01:45:08;11.75;;;5.90;;
11651;SDS011;5882;48.818;9.114;2022-11-12T01:47:40;9.88;;;5.20;;
11651;SDS011;5882;48.818;9.114;2022-11-12T01:50:12;9.43;;;4.63;;
11651;SDS011;5882;48.818;9.114;2022-11-12T01:52:40;7.68;;;5.28;;
11651;SDS011;5882;48.818;9.114;2022-11-12T01:55:09;9.30;;;4.82;;
11651;SDS011;5882;48.818;9.114;2022-11-12T01:57:40;7.55;;;4.82;;
11651;SDS011;5882;48.818;9.114;2022-11-12T02:00:09;7.95;;;5.00;;
11651;SDS011;5882;48.818;9.114;2022-11-12T02:02:36;10.77;;;5.72;;
11651;SDS011;5882;48.818;9.114;2022-11-12T02:05:04;5.18;;;4.70;;
11651;SDS011;5882;48.818;9.114;2022-11-12T02:07:32;4.93;;;4.32;;
11651;SDS011;5882;48.818;9.114;2022-11-12T02:10:00;8.35;;;4.93;;
11651;SDS011;5882;48.818;9.114;2022-11-12T02:12:27;6.63;;;4.75;;
11651;SDS011;5882;48.818;9.114;2022-11-12T02:15:10;8.32;;;5.20;;
11651;SDS011;5882;48.818;9.114;2022-11-12T02:17:37;5.35;;;4.22;;
11651;SDS011;5882;48.818;9.114;2022-11-12T02:20:05;7.60;;;4.30;;
11651;SDS011;5882;48.818;9.114;2022-11-12T02:22:35;5.88;;;4.65;;
11651;SDS011;5882;48.818;9.114;2022-11-12T02:25:01;4.75;;;4.03;;
11651;SDS011;5882;48.818;9.114;2022-11-12T02:27:28;6.03;;;4.72;;
11651;SDS011;5882;48.818;9.114;2022-11-12T02:29:54;5.28;;;4.38;;
11651;SDS011;5882;48.818;9.114;2022-11-12T02:32:21;5.93;;;4.47;;
11651;SDS011;5882;48.818;9.114;2022-11-12T02:34:47;6.63;;;4.68;;
11651;SDS011;5882;48.818;9.114;2022-11-12T02:37:14;6.90;;;4.88;;
11651;SDS011;5882;48.818;9.114;2022-11-12T02:39:42;5.32;;;4.43;;
11651;SDS011;5882;48.818;9.114;2022-11-12T02:42:08;5.88;;;4.70;;
11651;SDS011;5882;48.818;9.114;2022-11-12T02:44:34;5.00;;;4.00;;
11651;SDS011;5882;48.818;9.114;2022-11-12T02:47:01;7.13;;;3.90;;
11651;SDS011;5882;48.818;9.114;2022-11-12T02:49:27;6.50;;;4.72;;
11651;SDS011;5882;48.818;9.114;2022-11-12T02:51:54;5.82;;;4.68;;
11651;SDS011;5882;48.818;9.114;2022-11-12T02:54:20;5.10;;;4.45;;
11651;SDS011;5882;48.818;9.114;2022-11-12T02:56:48;7.28;;;4.60;;
11651;SDS011;5882;48.818;9.114;2022-11-12T02:59:15;5.85;;;4.32;;
11651;SDS011;5882;48.818;9.114;2022-11-12T03:01:44;5.15;;;4.13;;
11651;SDS011;5882;48.818;9.114;2022-11-12T03:04:11;5.45;;;3.92;;
11651;SDS011;5882;48.818;9.114;2022-11-12T03:06:37;5.60;;;3.90;;
11651;SDS011;5882;48.818;9.114;2022-11-12T03:09:04;4.15;;;3.42;;
11651;SDS011;5882;48.818;9.114;2022-11-12T03:11:31;4.32;;;3.40;;
11651;SDS011;5882;48.818;9.114;2022-11-12T03:13:59;4.85;;;4.35;;
11651;SDS011;5882;48.818;9.114;2022-11-12T03:16:26;4.10;;;3.70;;
11651;SDS011;5882;48.818;9.114;2022-11-12T03:18:52;3.83;;;3.30;;
11651;SDS011;5882;48.818;9.114;2022-11-12T03:21:19;6.57;;;4.03;;
11651;SDS011;5882;48.818;9.114;2022-11-12T03:23:45;5.55;;;4.57;;
11651;SDS011;5882;48.818;9.114;2022-11-12T03:26:12;5.28;;;4.25;;
11651;SDS011;5882;48.818;9.114;2022-11-12T03:28:38;5.15;;;3.80;;
11651;SDS011;5882;48.818;9.114;2022-11-12T03:31:06;5.88;;;3.90;;
11651;SDS011;5882;48.818;9.114;2022-11-12T03:33:33;3.60;;;3.30;;
11651;SDS011;5882;48.818;9.114;2022-11-12T03:35:59;4.72;;;4.20;;
11651;SDS011;5882;48.818;9.114;2022-11-12T03:38:26;3.80;;;3.50;;
11651;SDS011;5882;48.818;9.114;2022-11-12T03:40:52;5.38;;;3.90;;
11651;SDS011;5882;48.818;9.114;2022-11-12T03:43:19;5.22;;;3.92;;
11651;SDS011;5882;48.818;9.114;2022-11-12T03:45:45;3.70;;;3.40;;
11651;SDS011;5882;48.818;9.114;2022-11-12T03:48:13;3.58;;;3.00;;
11651;SDS011;5882;48.818;9.114;2022-11-12T03:50:40;4.22;;;3.63;;
11651;SDS011;5882;48.818;9.114;2022-11-12T03:53:06;5.38;;;3.55;;
11651;SDS011;5882;48.818;9.114;2022-11-12T03:55:34;3.60;;;2.92;;
11651;SDS011;5882;48.818;9.114;2022-11-12T03:58:00;3.47;;;3.17;;
11651;SDS011;5882;48.818;9.114;2022-11-12T04:00:28;3.25;;;2.95;;
11651;SDS011;5882;48.818;9.114;2022-11-12T04:02:55;3.70;;;3.35;;
11651;SDS011;5882;48.818;9.114;2022-11-12T04:05:23;3.75;;;3.38;;
11651;SDS011;5882;48.818;9.114;2022-11-12T04:08:09;3.35;;;3.05;;
11651;SDS011;5882;48.818;9.114;2022-11-12T04:10:55;5.07;;;3.60;;
11651;SDS011;5882;48.818;9.114;2022-11-12T04:13:21;4.80;;;3.60;;
11651;SDS011;5882;48.818;9.114;2022-11-12T04:15:57;3.72;;;3.35;;
11651;SDS011;5882;48.818;9.114;2022-11-12T04:18:41;3.45;;;3.15;;
11651;SDS011;5882;48.818;9.114;2022-11-12T04:21:28;3.78;;;3.05;;
11651;SDS011;5882;48.818;9.114;2022-11-12T04:24:13;5.07;;;3.45;;
11651;SDS011;5882;48.818;9.114;2022-11-12T04:26:53;4.30;;;3.67;;
11651;SDS011;5882;48.818;9.114;2022-11-12T04:29:20;3.58;;;3.28;;
11651;SDS011;5882;48.818;9.114;2022-11-12T04:32:04;3.92;;;3.33;;
11651;SDS011;5882;48.818;9.114;2022-11-12T04:34:30;4.47;;;4.03;;
11651;SDS011;5882;48.818;9.114;2022-11-12T04:36:59;3.78;;;3.30;;
11651;SDS011;5882;48.818;9.114;2022-11-12T04:39:26;4.35;;;3.85;;
11651;SDS011;5882;48.818;9.114;2022-11-12T04:41:52;4.13;;;3.42;;
11651;SDS011;5882;48.818;9.114;2022-11-12T04:44:36;4.57;;;3.60;;
11651;SDS011;5882;48.818;9.114;2022-11-12T04:47:20;3.90;;;3.50;;
11651;SDS011;5882;48.818;9.114;2022-11-12T04:49:46;4.70;;;4.28;;
11651;SDS011;5882;48.818;9.114;2022-11-12T04:52:14;4.57;;;4.07;;
11651;SDS011;5882;48.818;9.114;2022-11-12T04:54:41;3.88;;;3.47;;
11651;SDS011;5882;48.818;9.114;2022-11-12T04:57:07;5.22;;;3.58;;
11651;SDS011;5882;48.818;9.114;2022-11-12T04:59:34;5.60;;;4.10;;
11651;SDS011;5882;48.818;9.114;2022-11-12T05:02:00;4.45;;;4.05;;
11651;SDS011;5882;48.818;9.114;2022-11-12T05:04:27;3.97;;;3.67;;
11651;SDS011;5882;48.818;9.114;2022-11-12T05:06:54;4.38;;;3.95;;
11651;SDS011;5882;48.818;9.114;2022-11-12T05:09:22;4.43;;;3.88;;
11651;SDS011;5882;48.818;9.114;2022-11-12T05:11:49;4.00;;;3.38;;
11651;SDS011;5882;48.818;9.114;2022-11-12T05:14:16;3.80;;;3.50;;
11651;SDS011;5882;48.818;9.114;2022-11-12T05:16:43;4.00;;;3.65;;
11651;SDS011;5882;48.818;9.114;2022-11-12T05:19:10;4.43;;;3.38;;
11651;SDS011;5882;48.818;9.114;2022-11-12T05:21:36;4.05;;;3.65;;
11651;SDS011;5882;48.818;9.114;2022-11-12T05:24:22;3.50;;;3.20;;
11651;SDS011;5882;48.818;9.114;2022-11-12T05:26:49;3.90;;;3.60;;
11651;SDS011;5882;48.818;9.114;2022-11-12T05:29:15;3.42;;;3.13;;
11651;SDS011;5882;48.818;9.114;2022-11-12T05:31:42;3.80;;;3.50;;
11651;SDS011;5882;48.818;9.114;2022-11-12T05:34:09;3.83;;;3.30;;
11651;SDS011;5882;48.818;9.114;2022-11-12T05:36:35;4.13;;;3.45;;
11651;SDS011;5882;48.818;9.114;2022-11-12T05:39:02;5.30;;;3.35;;
11651;SDS011;5882;48.818;9.114;2022-11-12T05:41:30;3.63;;;3.33;;
11651;SDS011;5882;48.818;9.114;2022-11-12T05:43:57;3.85;;;3.45;;
11651;SDS011;5882;48.818;9.114;2022-11-12T05:46:23;4.63;;;4.15;;
11651;SDS011;5882;48.818;9.114;2022-11-12T05:48:50;5.75;;;4.63;;
11651;SDS011;5882;48.818;9.114;2022-11-12T05:51:16;7.57;;;6.82;;
11651;SDS011;5882;48.818;9.114;2022-11-12T05:53:43;9.40;;;8.35;;
11651;SDS011;5882;48.818;9.114;2022-11-12T05:56:10;14.10;;;12.20;;
11651;SDS011;5882;48.818;9.114;2022-11-12T05:58:38;10.38;;;8.20;;
11651;SDS011;5882;48.818;9.114;2022-11-12T06:01:04;6.72;;;5.95;;
11651;SDS011;5882;48.818;9.114;2022-11-12T06:03:31;5.70;;;5.20;;
11651;SDS011;5882;48.818;9.114;2022-11-12T06:05:58;4.60;;;4.20;;
11651;SDS011;5882;48.818;9.114;2022-11-12T06:08:24;5.53;;;4.20;;
11651;SDS011;5882;48.818;9.114;2022-11-12T06:10:51;4.75;;;4.18;;
11651;SDS011;5882;48.818;9.114;2022-11-12T06:13:18;4.25;;;3.55;;
11651;SDS011;5882;48.818;9.114;2022-11-12T06:15:46;5.10;;;4.57;;
11651;SDS011;5882;48.818;9.114;2022-11-12T06:18:13;4.60;;;4.18;;
11651;SDS011;5882;48.818;9.114;2022-11-12T06:20:39;4.18;;;3.47;;
11651;SDS011;5882;48.818;9.114;2022-11-12T06:23:06;4.40;;;3.63;;
11651;SDS011;5882;48.818;9.114;2022-11-12T06:25:32;3.50;;;3.20;;
11651;SDS011;5882;48.818;9.114;2022-11-12T06:27:59;3.47;;;3.17;;
11651;SDS011;5882;48.818;9.114;2022-11-12T06:30:25;3.50;;;3.20;;
11651;SDS011;5882;48.818;9.114;2022-11-12T06:32:53;3.38;;;3.08;;
11651;SDS011;5882;48.818;9.114;2022-11-12T06:35:20;3.55;;;3.20;;
11651;SDS011;5882;48.818;9.114;2022-11-12T06:37:47;3.17;;;2.92;;
11651;SDS011;5882;48.818;9.114;2022-11-12T06:40:13;3.30;;;3.03;;
11651;SDS011;5882;48.818;9.114;2022-11-12T06:42:40;3.15;;;2.83;;
11651;SDS011;5882;48.818;9.114;2022-11-12T06:45:07;3.20;;;2.90;;
11651;SDS011;5882;48.818;9.114;2022-11-12T06:47:33;3.00;;;2.70;;
11651;SDS011;5882;48.818;9.114;2022-11-12T06:50:01;2.88;;;2.67;;
11651;SDS011;5882;48.818;9.114;2022-11-12T06:52:28;2.95;;;2.67;;
11651;SDS011;5882;48.818;9.114;2022-11-12T06:54:54;2.72;;;2.53;;
11651;SDS011;5882;48.818;9.114;2022-11-12T06:57:21;3.88;;;2.92;;
11651;SDS011;5882;48.818;9.114;2022-11-12T06:59:47;4.20;;;3.00;;
11651;SDS011;5882;48.818;9.114;2022-11-12T07:02:14;3.08;;;2.72;;
11651;SDS011;5882;48.818;9.114;2022-11-12T07:04:40;5.60;;;3.40;;
11651;SDS011;5882;48.818;9.114;2022-11-12T07:07:11;3.20;;;2.78;;
11651;SDS011;5882;48.818;9.114;2022-11-12T07:09:37;3.67;;;2.92;;
11651;SDS011;5882;48.818;9.114;2022-11-12T07:12:04;3.75;;;3.45;;
11651;SDS011;5882;48.818;9.114;2022-11-12T07:14:31;4.38;;;3.97;;
11651;SDS011;5882;48.818;9.114;2022-11-12T07:16:57;5.65;;;4.03;;
11651;SDS011;5882;48.818;9.114;2022-11-12T07:19:24;5.03;;;3.40;;
11651;SDS011;5882;48.818;9.114;2022-11-12T07:21:50;4.15;;;3.63;;
11651;SDS011;5882;48.818;9.114;2022-11-12T07:24:18;3.97;;;3.03;;
11651;SDS011;5882;48.818;9.114;2022-11-12T07:26:45;4.75;;;3.28;;
11651;SDS011;5882;48.818;9.114;2022-11-12T07:29:11;3.33;;;3.03;;
11651;SDS011;5882;48.818;9.114;2022-11-12T07:31:38;3.78;;;3.33;;
11651;SDS011;5882;48.818;9.114;2022-11-12T07:34:04;3.15;;;2.95;;
11651;SDS011;5882;48.818;9.114;2022-11-12T07:36:31;4.13;;;3.70;;
11651;SDS011;5882;48.818;9.114;2022-11-12T07:38:57;3.83;;;3.30;;
11651;SDS011;5882;48.818;9.114;2022-11-12T07:41:25;3.30;;;3.00;;
11651;SDS011;5882;48.818;9.114;2022-11-12T07:43:52;3.13;;;2.83;;
11651;SDS011;5882;48.818;9.114;2022-11-12T07:46:20;3.38;;;3.08;;
11651;SDS011;5882;48.818;9.114;2022-11-12T07:48:49;3.47;;;3.17;;
11651;SDS011;5882;48.818;9.114;2022-11-12T07:51:16;3.22;;;2.92;;
11651;SDS011;5882;48.818;9.114;2022-11-12T07:53:43;8.48;;;5.22;;
11651;SDS011;5882;48.818;9.114;2022-11-12T07:56:10;12.35;;;5.22;;
11651;SDS011;5882;48.818;9.114;2022-11-12T07:58:39;7.20;;;4.70;;
11651;SDS011;5882;48.818;9.114;2022-11-12T08:01:06;4.90;;;4.13;;
11651;SDS011;5882;48.818;9.114;2022-11-12T08:03:33;4.68;;;3.63;;
11651;SDS011;5882;48.818;9.114;2022-11-12T08:06:00;3.25;;;2.95;;
11651;SDS011;5882;48.818;9.114;2022-11-12T08:08:27;2.70;;;2.50;;
11651;SDS011;5882;48.818;9.114;2022-11-12T08:10:54;3.67;;;3.28;;
11651;SDS011;5882;48.818;9.114;2022-11-12T08:13:21;3.30;;;3.00;;
11651;SDS011;5882;48.818;9.114;2022-11-12T08:15:49;3.42;;;3.13;;
11651;SDS011;5882;48.818;9.114;2022-11-12T08:18:16;3.10;;;2.78;;
11651;SDS011;5882;48.818;9.114;2022-11-12T08:20:43;2.88;;;2.67;;
11651;SDS011;5882;48.818;9.114;2022-11-12T08:23:09;3.67;;;3.25;;
11651;SDS011;5882;48.818;9.114;2022-11-12T08:25:36;2.95;;;2.75;;
11651;SDS011;5882;48.818;9.114;2022-11-12T08:28:03;3.40;;;2.95;;
11651;SDS011;5882;48.818;9.114;2022-11-12T08:30:29;2.95;;;2.72;;
11651;SDS011;5882;48.818;9.114;2022-11-12T08:32:58;3.13;;;2.83;;
11651;SDS011;5882;48.818;9.114;2022-11-12T08:35:25;4.07;;;3.35;;
11651;SDS011;5882;48.818;9.114;2022-11-12T08:37:57;3.08;;;2.78;;
11651;SDS011;5882;48.818;9.114;2022-11-12T08:40:24;3.20;;;2.83;;
11651;SDS011;5882;48.818;9.114;2022-11-12T08:43:01;3.55;;;3.08;;
11651;SDS011;5882;48.818;9.114;2022-11-12T08:45:27;2.97;;;2.72;;
11651;SDS011;5882;48.818;9.114;2022-11-12T08:47:58;2.90;;;2.70;;
11651;SDS011;5882;48.818;9.114;2022-11-12T08:50:25;4.70;;;3.20;;
11651;SDS011;5882;48.818;9.114;2022-11-12T08:52:52;2.80;;;2.55;;
11651;SDS011;5882;48.818;9.114;2022-11-12T08:55:18;2.83;;;2.60;;
11651;SDS011;5882;48.818;9.114;2022-11-12T08:57:45;4.28;;;3.30;;
11651;SDS011;5882;48.818;9.114;2022-11-12T09:00:12;4.05;;;2.67;;
11651;SDS011;5882;48.818;9.114;2022-11-12T09:02:39;3.10;;;2.80;;
11651;SDS011;5882;48.818;9.114;2022-11-12T09:05:07;3.50;;;3.20;;
11651;SDS011;5882;48.818;9.114;2022-11-12T09:07:34;3.17;;;2.88;;
11651;SDS011;5882;48.818;9.114;2022-11-12T09:10:03;4.15;;;3.08;;
11651;SDS011;5882;48.818;9.114;2022-11-12T09:12:30;3.63;;;3.33;;
11651;SDS011;5882;48.818;9.114;2022-11-12T09:14:57;3.35;;;3.05;;
11651;SDS011;5882;48.818;9.114;2022-11-12T09:17:23;4.15;;;3.60;;
11651;SDS011;5882;48.818;9.114;2022-11-12T09:19:50;3.65;;;3.10;;
11651;SDS011;5882;48.818;9.114;2022-11-12T09:22:18;2.92;;;2.70;;
11651;SDS011;5882;48.818;9.114;2022-11-12T09:24:45;3.42;;;3.13;;
11651;SDS011;5882;48.818;9.114;2022-11-12T09:27:11;3.40;;;3.10;;
11651;SDS011;5882;48.818;9.114;2022-11-12T09:29:38;4.32;;;3.20;;
11651;SDS011;5882;48.818;9.114;2022-11-12T09:32:04;3.45;;;3.13;;
11651;SDS011;5882;48.818;9.114;2022-11-12T09:34:31;3.10;;;2.80;;
11651;SDS011;5882;48.818;9.114;2022-11-12T09:36:58;3.20;;;2.88;;
11651;SDS011;5882;48.818;9.114;2022-11-12T09:39:25;4.13;;;3.25;;
11651;SDS011;5882;48.818;9.114;2022-11-12T09:41:52;2.92;;;2.72;;
11651;SDS011;5882;48.818;9.114;2022-11-12T09:44:19;5.05;;;3.72;;
11651;SDS011;5882;48.818;9.114;2022-11-12T09:46:49;3.50;;;3.20;;
11651;SDS011;5882;48.818;9.114;2022-11-12T09:49:19;3.47;;;3.17;;
11651;SDS011;5882;48.818;9.114;2022-11-12T09:51:49;3.53;;;3.17;;
11651;SDS011;5882;48.818;9.114;2022-11-12T09:54:18;3.33;;;3.03;;
11651;SDS011;5882;48.818;9.114;2022-11-12T09:56:51;3.33;;;3.03;;
11651;SDS011;5882;48.818;9.114;2022-11-12T09:59:19;3.30;;;3.00;;
11651;SDS011;5882;48.818;9.114;2022-11-12T10:01:53;3.65;;;3.30;;
11651;SDS011;5882;48.818;9.114;2022-11-12T10:07:23;2.92;;;2.70;;
11651;SDS011;5882;48.818;9.114;2022-11-12T10:09:56;4.45;;;2.97;;
11651;SDS011;5882;48.818;9.114;2022-11-12T10:12:26;4.25;;;3.40;;
11651;SDS011;5882;48.818;9.114;2022-11-12T10:18:10;3.50;;;3.20;;
11651;SDS011;5882;48.818;9.114;2022-11-12T10:20:41;3.83;;;3.45;;
11651;SDS011;5882;48.818;9.114;2022-11-12T10:23:12;3.50;;;3.20;;
11651;SDS011;5882;48.818;9.114;2022-11-12T10:25:40;3.30;;;3.00;;
11651;SDS011;5882;48.818;9.114;2022-11-12T10:28:13;3.60;;;3.30;;
11651;SDS011;5882;48.818;9.114;2022-11-12T10:30:42;4.20;;;3.60;;
11651;SDS011;5882;48.818;9.114;2022-11-12T10:33:10;4.28;;;3.88;;
11651;SDS011;5882;48.818;9.114;2022-11-12T10:35:38;3.63;;;3.33;;
11651;SDS011;5882;48.818;9.114;2022-11-12T10:38:05;4.47;;;3.38;;
11651;SDS011;5882;48.818;9.114;2022-11-12T10:40:33;3.75;;;3.42;;
11651;SDS011;5882;48.818;9.114;2022-11-12T10:43:03;4.03;;;3.03;;
11651;SDS011;5882;48.818;9.114;2022-11-12T10:45:32;3.63;;;3.20;;
11651;SDS011;5882;48.818;9.114;2022-11-12T10:47:58;4.88;;;3.55;;
11651;SDS011;5882;48.818;9.114;2022-11-12T10:50:28;4.72;;;3.80;;
11651;SDS011;5882;48.818;9.114;2022-11-12T10:52:55;3.95;;;3.55;;
11651;SDS011;5882;48.818;9.114;2022-11-12T10:55:23;4.07;;;3.78;;
11651;SDS011;5882;48.818;9.114;2022-11-12T11:00:55;4.15;;;3.75;;
11651;SDS011;5882;48.818;9.114;2022-11-12T11:03:22;4.57;;;3.55;;
11651;SDS011;5882;48.818;9.114;2022-11-12T11:05:50;4.03;;;3.20;;
11651;SDS011;5882;48.818;9.114;2022-11-12T11:08:37;3.67;;;3.35;;
11651;SDS011;5882;48.818;9.114;2022-11-12T11:11:16;3.85;;;3.10;;
11651;SDS011;5882;48.818;9.114;2022-11-12T11:13:43;3.97;;;3.10;;
11651;SDS011;5882;48.818;9.114;2022-11-12T11:16:12;3.53;;;3.22;;
11651;SDS011;5882;48.818;9.114;2022-11-12T11:18:40;3.17;;;2.80;;
11651;SDS011;5882;48.818;9.114;2022-11-12T11:21:10;4.68;;;3.05;;
11651;SDS011;5882;48.818;9.114;2022-11-12T11:23:41;3.63;;;3.33;;
11651;SDS011;5882;48.818;9.114;2022-11-12T11:26:13;3.78;;;3.03;;
11651;SDS011;5882;48.818;9.114;2022-11-12T11:28:43;3.45;;;3.15;;
11651;SDS011;5882;48.818;9.114;2022-11-12T11:31:15;3.58;;;3.25;;
11651;SDS011;5882;48.818;9.114;2022-11-12T11:33:45;3.08;;;2.85;;
11651;SDS011;5882;48.818;9.114;2022-11-12T11:36:18;3.75;;;3.33;;
11651;SDS011;5882;48.818;9.114;2022-11-12T11:38:50;3.67;;;3.22;;
11651;SDS011;5882;48.818;9.114;2022-11-12T11:41:26;4.50;;;2.78;;
11651;SDS011;5882;48.818;9.114;2022-11-12T11:44:00;3.10;;;2.70;;
11651;SDS011;5882;48.818;9.114;2022-11-12T11:46:34;3.00;;;2.70;;
11651;SDS011;5882;48.818;9.114;2022-11-12T11:51:57;3.10;;;2.80;;
11651;SDS011;5882;48.818;9.114;2022-11-12T11:54:32;3.22;;;2.97;;
11651;SDS011;5882;48.818;9.114;2022-11-12T11:57:09;3.53;;;3.15;;
11651;SDS011;5882;48.818;9.114;2022-11-12T11:59:39;3.65;;;3.10;;
11651;SDS011;5882;48.818;9.114;2022-11-12T12:02:19;3.05;;;2.75;;
11651;SDS011;5882;48.818;9.114;2022-11-12T12:04:48;3.50;;;2.70;;
11651;SDS011;5882;48.818;9.114;2022-11-12T12:07:19;2.83;;;2.63;;
11651;SDS011;5882;48.818;9.114;2022-11-12T12:09:47;3.55;;;2.95;;
11651;SDS011;5882;48.818;9.114;2022-11-12T12:12:19;3.70;;;3.42;;
11651;SDS011;5882;48.818;9.114;2022-11-12T12:14:52;3.58;;;3.15;;
11651;SDS011;5882;48.818;9.114;2022-11-12T12:17:27;3.33;;;3.03;;
11651;SDS011;5882;48.818;9.114;2022-11-12T12:20:01;3.22;;;2.92;;
11651;SDS011;5882;48.818;9.114;2022-11-12T12:22:31;4.13;;;3.72;;
11651;SDS011;5882;48.818;9.114;2022-11-12T12:25:00;3.20;;;2.97;;
11651;SDS011;5882;48.818;9.114;2022-11-12T12:27:29;3.20;;;2.90;;
11651;SDS011;5882;48.818;9.114;2022-11-12T12:29:58;3.45;;;3.17;;
11651;SDS011;5882;48.818;9.114;2022-11-12T12:32:27;3.47;;;2.80;;
11651;SDS011;5882;48.818;9.114;2022-11-12T12:34:55;3.65;;;3.35;;
11651;SDS011;5882;48.818;9.114;2022-11-12T12:37:26;3.75;;;3.17;;
11651;SDS011;5882;48.818;9.114;2022-11-12T12:39:58;2.67;;;2.47;;
11651;SDS011;5882;48.818;9.114;2022-11-12T12:42:28;3.08;;;2.80;;
11651;SDS011;5882;48.818;9.114;2022-11-12T12:44:58;3.60;;;2.78;;
11651;SDS011;5882;48.818;9.114;2022-11-12T12:47:30;2.80;;;2.60;;
11651;SDS011;5882;48.818;9.114;2022-11-12T12:49:59;3.17;;;2.88;;
11651;SDS011;5882;48.818;9.114;2022-11-12T12:52:28;2.58;;;2.38;;
11651;SDS011;5882;48.818;9.114;2022-11-12T12:54:55;3.22;;;2.85;;
11651;SDS011;5882;48.818;9.114;2022-11-12T12:57:29;3.63;;;2.97;;
11651;SDS011;5882;48.818;9.114;2022-11-12T13:02:42;2.80;;;2.50;;
11651;SDS011;5882;48.818;9.114;2022-11-12T13:07:50;3.53;;;2.72;;
11651;SDS011;5882;48.818;9.114;2022-11-12T13:10:33;2.65;;;2.45;;
11651;SDS011;5882;48.818;9.114;2022-11-12T13:13:00;2.22;;;2.10;;
11651;SDS011;5882;48.818;9.114;2022-11-12T13:15:39;2.50;;;2.30;;
11651;SDS011;5882;48.818;9.114;2022-11-12T13:18:09;2.97;;;2.65;;
11651;SDS011;5882;48.818;9.114;2022-11-12T13:21:09;2.80;;;2.60;;
11651;SDS011;5882;48.818;9.114;2022-11-12T13:23:42;3.88;;;3.22;;
11651;SDS011;5882;48.818;9.114;2022-11-12T13:26:36;4.57;;;3.17;;
11651;SDS011;5882;48.818;9.114;2022-11-12T13:29:20;3.00;;;2.70;;
11651;SDS011;5882;48.818;9.114;2022-11-12T13:31:47;3.25;;;2.72;;
11651;SDS011;5882;48.818;9.114;2022-11-12T13:34:29;2.95;;;2.67;;
11651;SDS011;5882;48.818;9.114;2022-11-12T13:36:58;6.03;;;3.20;;
11651;SDS011;5882;48.818;9.114;2022-11-12T13:39:26;4.78;;;2.92;;
11651;SDS011;5882;48.818;9.114;2022-11-12T13:41:56;2.90;;;2.65;;
11651;SDS011;5882;48.818;9.114;2022-11-12T13:44:41;3.00;;;2.80;;
11651;SDS011;5882;48.818;9.114;2022-11-12T13:47:09;3.42;;;2.83;;
11651;SDS011;5882;48.818;9.114;2022-11-12T13:49:38;4.13;;;3.40;;
11651;SDS011;5882;48.818;9.114;2022-11-12T13:52:04;3.30;;;3.00;;
11651;SDS011;5882;48.818;9.114;2022-11-12T13:54:32;3.60;;;3.28;;
11651;SDS011;5882;48.818;9.114;2022-11-12T13:57:15;3.45;;;3.15;;
11651;SDS011;5882;48.818;9.114;2022-11-12T13:59:41;3.28;;;2.97;;
11651;SDS011;5882;48.818;9.114;2022-11-12T14:02:17;3.75;;;3.03;;
11651;SDS011;5882;48.818;9.114;2022-11-12T14:04:46;4.95;;;3.72;;
11651;SDS011;5882;48.818;9.114;2022-11-12T14:07:17;4.00;;;3.35;;
11651;SDS011;5882;48.818;9.114;2022-11-12T14:09:49;3.10;;;2.70;;
11651;SDS011;5882;48.818;9.114;2022-11-12T14:12:28;3.65;;;3.22;;
11651;SDS011;5882;48.818;9.114;2022-11-12T14:15:02;3.80;;;3.35;;
11651;SDS011;5882;48.818;9.114;2022-11-12T14:17:36;3.72;;;3.42;;
11651;SDS011;5882;48.818;9.114;2022-11-12T14:20:16;3.58;;;3.20;;
11651;SDS011;5882;48.818;9.114;2022-11-12T14:22:45;3.65;;;3.30;;
11651;SDS011;5882;48.818;9.114;2022-11-12T14:25:15;4.53;;;3.25;;
11651;SDS011;5882;48.818;9.114;2022-11-12T14:27:43;3.60;;;3.08;;
11651;SDS011;5882;48.818;9.114;2022-11-12T14:30:14;3.67;;;3.25;;
11651;SDS011;5882;48.818;9.114;2022-11-12T14:32:44;3.38;;;3.08;;
11651;SDS011;5882;48.818;9.114;2022-11-12T14:37:57;4.78;;;3.80;;
11651;SDS011;5882;48.818;9.114;2022-11-12T14:40:25;4.53;;;3.75;;
11651;SDS011;5882;48.818;9.114;2022-11-12T14:42:52;4.53;;;3.47;;
11651;SDS011;5882;48.818;9.114;2022-11-12T14:45:20;3.85;;;3.45;;
11651;SDS011;5882;48.818;9.114;2022-11-12T14:47:47;4.00;;;3.60;;
11651;SDS011;5882;48.818;9.114;2022-11-12T14:50:24;5.53;;;4.13;;
11651;SDS011;5882;48.818;9.114;2022-11-12T14:52:53;6.63;;;3.80;;
11651;SDS011;5882;48.818;9.114;2022-11-12T14:55:23;5.43;;;4.53;;
11651;SDS011;5882;48.818;9.114;2022-11-12T14:57:51;4.20;;;3.67;;
11651;SDS011;5882;48.818;9.114;2022-11-12T15:00:37;5.25;;;4.50;;
11651;SDS011;5882;48.818;9.114;2022-11-12T15:03:05;4.25;;;3.85;;
11651;SDS011;5882;48.818;9.114;2022-11-12T15:05:33;5.00;;;4.32;;
11651;SDS011;5882;48.818;9.114;2022-11-12T15:08:02;5.97;;;4.03;;
11651;SDS011;5882;48.818;9.114;2022-11-12T15:10:37;6.07;;;4.95;;
11651;SDS011;5882;48.818;9.114;2022-11-12T15:13:05;5.22;;;4.70;;
11651;SDS011;5882;48.818;9.114;2022-11-12T15:15:33;6.65;;;4.90;;
11651;SDS011;5882;48.818;9.114;2022-11-12T15:18:01;4.97;;;4.53;;
11651;SDS011;5882;48.818;9.114;2022-11-12T15:20:28;5.47;;;4.72;;
11651;SDS011;5882;48.818;9.114;2022-11-12T15:22:55;6.70;;;5.30;;
11651;SDS011;5882;48.818;9.114;2022-11-12T15:25:22;5.65;;;5.13;;
11651;SDS011;5882;48.818;9.114;2022-11-12T15:27:51;5.38;;;4.88;;
11651;SDS011;5882;48.818;9.114;2022-11-12T15:30:21;5.22;;;4.70;;
11651;SDS011;5882;48.818;9.114;2022-11-12T15:32:49;5.65;;;4.43;;